Georgetown, Ohio
Current Conditions -  °F | °C
As of 4:55 PM on Tuesday 25 Nov 2014 (Local Time) from KFGX Reporting Station
Clear Clear  
Wind Chill: 39°   Ceiling: Unl
Heat Index: 42°   Visibility: 10mi
Dew Point: 28°   Wind: 5mph
Humidity: 57%   Direction: 250°WSW
Pressure: 30.12"   Gusts: NA
Location:  38.86°N, 83.9°W
Report Text: KFGX 252155Z AUTO 25004KT 10SM CLR 05/M02 A3012 RMK AO2 T00531025
Loading
Personal Weather Stations






























Interactive Weather Map New forecast layout! Learn more

10-Day Weather Forecast

Advertisements
Track Severe Weather on mobile